Stations météo

Publicité
Mende, France (7554): Température de l'air & dewpoint: 11.12.2017 22:00:00 - 17.12.2017 22:00:00 (CET)Mende, France (7554): Température de l'air 5cm: 11.12.2017 22:00:00 - 17.12.2017 22:00:00 (CET)Mende, France (7554): Température de l'air -20cm & Température de l'air -100cm: 11.12.2017 22:00:00 - 17.12.2017 22:00:00 (CET)Mende, France (7554): Vitesse du vent & gusts: 11.12.2017 22:00:00 - 17.12.2017 22:00:00 (CET)Mende, France (7554): Direction du vent: 11.12.2017 22:00:00 - 17.12.2017 22:00:00 (CET)Mende, France (7554): visibility: 11.12.2017 22:00:00 - 17.12.2017 22:00:00 (CET)Mende, France (7554): Ensoleillement: 11.12.2017 22:00:00 - 17.12.2017 22:00:00 (CET)Mende, France (7554): Quantités de précipitations: 11.12.2017 22:00:00 - 17.12.2017 22:00:00 (CET)
Date & Time tt [°C] td [°C] tt 5cm [°C] tt -20cm [°C] tt -100cm [°C] ff [km/h] ff [knt] fx [km/h] fx [knt] dd vv [km] sd [min] rr [mm]
17.12.2017 22:00:00 -1,9 -4,4 -3,2 3,3 6,9 8 4 26 14 NW 20 0 0,0
17.12.2017 21:00:00 -1,2 -4,0 -2,1 3,3 6,9 11 6 27 15 NNW 20 0 0,0
17.12.2017 20:00:00 -1,1 -3,6 -1,9 3,3 7,0 8 4 20 11 WNW 20 0 0,0
17.12.2017 19:00:00 -0,6 -4,0 -1,2 3,3 7,0 10 5 25 14 WNW 20 0 0,0
17.12.2017 18:00:00 -0,2 -3,6 -0,4 3,3 7,0 13 7 27 15 NW 20 0 0,0
17.12.2017 17:00:00 0,3 -3,4 0,2 3,3 6,9 14 8 32 17 NNW 20 7 0,0
17.12.2017 16:00:00 1,0 -3,1 1,0 3,3 6,9 16 9 42 23 NW 20 15 0,0
17.12.2017 15:00:00 1,0 -3,3 1,9 3,3 6,9 19 10 35 19 NW 20 4 0,0
17.12.2017 14:00:00 0,9 -3,0 1,8 3,3 7,0 22 12 39 21 NNW 20 5 0,0
17.12.2017 13:00:00 0,4 -2,5 1,0 3,4 7,0 9 5 20 11 WNW 20 4 0,0
17.12.2017 12:00:00 -0,6 -3,1 -1,0 3,4 6,9 5 3 10 5 W 20 2 0,0
17.12.2017 11:00:00 -1,7 -4,2 -1,3 3,4 7,0 6 3 15 8 W 20 0 0,0
17.12.2017 10:00:00 -2,3 -5,0 -2,7 3,5 6,9 9 5 20 11 W 20 0 0,0
17.12.2017 09:00:00 -3,0 -5,0 -4,8 3,5 7,0 11 6 22 12 W 20 1 0,0
17.12.2017 08:00:00 -3,3 -5,5 -4,7 3,6 6,9 15 8 23 12 WNW 20 0 0,0
17.12.2017 07:00:00 -2,9 -5,1 -3,7 3,6 7,0 11 6 32 17 WNW 20 0 0,0
17.12.2017 06:00:00 -2,9 -5,4 -4,2 3,6 6,9 11 6 25 14 NW 20 0 0,0
17.12.2017 05:00:00 -3,3 -5,6 -4,8 3,7 6,9 14 7 34 19 NW 20 0 0,0
17.12.2017 04:00:00 -3,6 -5,8 -5,0 3,7 7,0 13 7 30 16 NW 20 0 0,0
17.12.2017 03:00:00 -2,5 -4,8 -3,5 3,7 7,0 18 10 34 18 NNW 20 0 0,0
17.12.2017 02:00:00 -2,8 -5,1 -4,1 3,8 7,0 14 7 24 13 NW 20 0 0,0
17.12.2017 01:00:00 -2,8 -5,4 -4,4 3,8 7,0 9 5 19 11 WNW 20 0 0,0
17.12.2017 00:00:00 -2,9 -6,0 -4,1 3,8 7,0 13 7 32 17 NNW 20 0 0,0
16.12.2017 23:00:00 -1,8 -5,1 -3,0 3,8 6,9 18 10 36 19 NNW 20 0 0,0
16.12.2017 22:00:00 -2,1 -5,1 -2,8 3,8 7,0 21 11 36 19 NNW 20 0 0,0
16.12.2017 21:00:00 -1,5 -4,2 -2,1 3,9 6,9 17 9 33 18 NNW 20 0 0,0
16.12.2017 20:00:00 -1,0 -4,5 -2,0 3,9 7,0 16 9 40 21 NNW 20 0 0,0
16.12.2017 19:00:00 -1,3 -3,7 -2,6 3,8 6,9 16 9 37 20 NW 20 0 0,0
16.12.2017 18:00:00 -1,4 -3,6 -2,8 3,9 7,0 13 7 37 20 NW 20 0 0,0
16.12.2017 17:00:00 -0,4 -2,3 -0,5 3,9 7,0 17 9 33 18 NNW 7 0 0,0
16.12.2017 16:00:00 0,3 -2,7 0,5 3,9 6,9 12 6 28 15 NW 20 0 0,0
16.12.2017 15:00:00 0,4 -3,0 1,0 3,9 6,9 13 7 32 17 NW 20 0 0,0
16.12.2017 14:00:00 0,5 -2,7 1,4 4,0 7,0 12 6 31 17 NW 20 0 0,0
16.12.2017 13:00:00 0,4 -2,8 0,7 4,0 6,9 12 6 27 14 WNW 20 0 0,0
16.12.2017 12:00:00 0,2 -2,3 0,2 4,0 6,9 15 8 40 22 NW 20 0 0,0
16.12.2017 11:00:00 -0,1 -2,8 -0,4 4,0 6,9 16 9 36 19 NNW 20 11 0,0
16.12.2017 10:00:00 -0,7 -2,9 -1,5 4,1 6,9 16 8 32 17 NNW 20 0 0,0
16.12.2017 09:00:00 -1,2 -2,9 -2,1 4,1 6,9 16 9 35 19 NW 20 0 0,0
16.12.2017 08:00:00 -1,6 -3,2 -3,0 4,2 6,9 8 4 29 16 NNW 20 0 0,0
16.12.2017 07:00:00 -2,1 -3,5 -4,4 4,2 6,9 16 9 32 18 WNW 20 0 0,0
16.12.2017 06:00:00 -2,3 -3,3 -3,1 4,3 6,9 14 7 26 14 W 20 0 0,0
16.12.2017 05:00:00 -2,6 -3,6 -5,4 4,3 6,9 13 7 23 12 WNW 20 0 0,0
16.12.2017 04:00:00 -2,9 -4,3 -4,9 4,4 6,9 13 7 24 13 WNW 20 0 0,0
16.12.2017 03:00:00 -2,7 -4,1 -5,0 4,4 6,9 13 7 19 10 W 20 0 0,0
16.12.2017 02:00:00 -1,9 -3,5 -4,3 4,4 6,9 7 4 32 17 WNW 20 0 0,0
16.12.2017 01:00:00 -1,7 -3,3 -3,6 4,4 6,9 11 6 32 18 WNW 20 0 0,0
16.12.2017 00:00:00 -1,2 -2,5 -2,3 4,4 6,9 10 6 30 16 WNW 20 0 0,0
15.12.2017 23:00:00 -1,0 -2,0 -2,2 4,5 6,9 13 7 20 11 NW 20 0 0,0
15.12.2017 22:00:00 -1,0 -1,7 -2,5 4,5 6,9 10 5 32 18 W 20 0 0,0
15.12.2017 21:00:00 -0,3 -0,7 -1,4 4,4 6,9 16 9 31 17 W 20 0 0,0
15.12.2017 20:00:00 0,0 -0,3 -0,9 4,4 6,9 13 7 32 18 W 5 0 0,6
15.12.2017 19:00:00 -0,1 -0,5 -0,2 4,4 6,9 0 0 0 0 N 0,4 0 0,8
15.12.2017 18:00:00 0,1 -0,5 0,0 4,4 7,0 0 0 16 9 N 0,9 0 0,6
15.12.2017 17:00:00 0,6 -0,1 0,4 4,4 6,9 11 6 21 11 SW 19 0 0,0
15.12.2017 16:00:00 1,4 -0,1 1,4 4,3 6,9 13 7 27 15 W 20 16 0,0
15.12.2017 15:00:00 2,2 0,9 1,9 4,3 7,0 14 7 26 14 W 20 2 0,0
15.12.2017 14:00:00 1,4 0,4 1,8 4,3 6,9 11 6 29 16 W 20 10 0,0
15.12.2017 13:00:00 1,1 0,5 1,3 4,4 6,9 13 7 22 12 W 4,9 5 0,2
15.12.2017 12:00:00 1,5 1,2 1,7 4,4 7,0 8 4 18 10 WSW 12 2 0,0
15.12.2017 11:00:00 0,4 0,1 0,1 4,4 7,0 11 6 19 10 WSW 0,5 1 0,0
15.12.2017 10:00:00 -0,2 -0,5 -0,4 4,4 6,9 0 0 0 0 N 0,5 0 0,0
15.12.2017 09:00:00 -0,5 -0,8 -0,6 4,5 7,0 0 0 0 0 N 0,2 0 0,0
15.12.2017 08:00:00 -0,4 -0,8 -0,4 4,5 7,0 0 0 0 0 N 0,4 0 0,0
15.12.2017 07:00:00 -0,2 -0,8 -0,1 4,5 7,0 0 0 22 12 N 4,4 0 0,0
15.12.2017 06:00:00 0,2 -0,5 - - - 16 9 35 19 WNW 1,9 - 0,2
15.12.2017 05:00:00 0,6 -0,1 0,1 4,5 7,0 6 3 25 14 WNW 13 0 0,2
15.12.2017 04:00:00 0,8 -0,1 0,1 4,5 7,0 14 7 50 27 NW 3,9 0 0,8
15.12.2017 03:00:00 2,0 0,7 0,9 4,4 7,0 25 14 49 26 NW 4,5 0 1,8
15.12.2017 02:00:00 3,7 3,0 3,3 4,4 7,0 21 11 44 24 W 8 0 0,0
15.12.2017 01:00:00 3,9 2,7 3,3 4,4 6,9 23 13 59 32 W 20 0 0,2
15.12.2017 00:00:00 3,9 2,7 3,4 4,3 6,9 31 17 77 41 W 15 0 0,0
14.12.2017 23:00:00 4,1 3,4 3,8 4,3 7,0 25 14 57 31 W 7 0 0,6
14.12.2017 22:00:00 4,3 3,4 3,9 4,3 7,0 25 13 57 31 W 8 0 0,2
14.12.2017 21:00:00 4,5 3,3 4,0 4,2 7,0 22 12 52 28 W 20 0 0,2
14.12.2017 20:00:00 4,7 3,0 4,2 4,2 7,0 19 11 55 30 W 20 0 0,0
14.12.2017 19:00:00 4,9 2,6 4,4 4,1 7,0 23 12 53 29 W 20 0 0,0
14.12.2017 18:00:00 5,1 2,6 4,4 4,0 7,0 29 16 66 36 W 20 0 0,0
14.12.2017 17:00:00 5,1 2,4 4,7 4,0 7,0 20 11 54 29 W 20 0 0,0
14.12.2017 16:00:00 5,6 3,1 5,9 3,9 7,0 24 13 41 22 W 20 1 0,0
14.12.2017 15:00:00 5,7 2,9 6,1 3,9 7,0 19 10 48 26 W 20 2 0,0
14.12.2017 14:00:00 6,5 2,4 7,3 3,8 7,0 19 10 43 23 W 20 23 0,0
14.12.2017 13:00:00 6,6 2,7 6,2 3,8 7,0 19 10 46 25 W 20 6 0,0
14.12.2017 12:00:00 5,8 3,0 5,6 3,8 7,0 19 10 42 23 W 20 9 0,0
14.12.2017 11:00:00 5,2 2,4 4,0 3,7 7,0 18 10 37 20 W 20 1 0,0
14.12.2017 10:00:00 4,5 1,9 3,1 3,7 7,0 15 8 43 23 W 20 0 0,0
14.12.2017 09:00:00 4,5 1,9 3,3 3,7 7,0 26 14 49 27 WNW 20 0 0,0
14.12.2017 08:00:00 4,6 2,8 3,1 3,6 7,0 13 7 35 19 W 20 0 0,0
14.12.2017 07:00:00 4,6 2,9 3,4 3,6 7,0 16 9 49 26 WNW 20 0 0,0
14.12.2017 06:00:00 4,9 4,2 3,9 3,6 7,0 7 4 44 24 WSW 20 0 0,0
14.12.2017 05:00:00 4,9 4,6 4,5 3,5 7,0 22 12 41 22 WNW 20 0 0,0
14.12.2017 04:00:00 5,1 4,8 4,6 3,5 7,0 18 10 29 16 W 19 0 0,0
14.12.2017 03:00:00 4,8 4,4 4,5 3,4 7,0 17 9 40 22 W 15 0 0,0
14.12.2017 02:00:00 4,7 4,4 4,6 3,4 7,0 26 14 43 23 W 18 0 0,0
14.12.2017 01:00:00 5,1 5,0 4,4 3,4 7,0 22 12 39 21 W 10 0 0,0
14.12.2017 00:00:00 4,5 4,4 3,7 3,4 7,0 25 13 39 21 W 0,2 0 0,2
13.12.2017 23:00:00 3,8 3,7 2,8 3,3 7,0 21 11 35 19 W 0,4 0 0,0
13.12.2017 22:00:00 2,9 2,8 2,5 3,4 7,0 18 10 28 15 W 0,1 0 0,2
13.12.2017 21:00:00 2,6 2,3 2,1 3,3 7,0 13 7 21 11 WSW 0,1 0 0,4
13.12.2017 20:00:00 2,3 2,0 1,5 3,3 7,0 3 2 14 8 WSW 3,0 0 0,6
13.12.2017 19:00:00 1,8 1,5 1,2 3,3 7,0 0 0 5 3 N 2,6 0 0,4
13.12.2017 18:00:00 1,3 0,9 1,1 3,3 7,0 4 2 8 4 WNW 0,2 0 0,0
13.12.2017 17:00:00 1,4 0,8 1,3 3,3 7,0 4 2 11 6 WSW 0,2 0 0,0
13.12.2017 16:00:00 1,7 1,0 1,6 3,3 7,1 5 3 24 13 W 0,5 0 0,0
13.12.2017 15:00:00 2,0 0,4 2,3 3,3 7,1 8 4 14 8 W 20 1 0,0
13.12.2017 14:00:00 1,5 0,0 2,1 3,4 7,0 2 1 8 4 W 20 0 0,0
13.12.2017 13:00:00 0,8 -0,1 1,7 3,4 7,0 3 1 7 4 SSE 10 0 0,0
13.12.2017 12:00:00 0,1 -0,5 0,8 3,4 7,0 3 1 8 4 ESE 20 0 0,0
13.12.2017 11:00:00 -0,9 -1,2 -1,3 3,5 7,0 3 1 9 5 ENE 14 9 0,0
13.12.2017 10:00:00 -2,0 -2,4 -3,9 3,6 7,0 0 0 8 5 N 9 5 0,0
13.12.2017 09:00:00 -3,0 -3,5 -4,1 3,6 7,0 4 2 8 4 ESE 12 0 0,0
13.12.2017 08:00:00 -3,2 -3,7 -7,0 3,7 7,0 4 2 7 4 ESE 13 0 0,0
13.12.2017 07:00:00 -4,1 -4,8 -6,2 3,7 7,0 0 0 7 4 N 9 0 0,0
13.12.2017 06:00:00 -4,1 -4,6 -5,1 3,8 7,0 5 3 8 4 ESE 4,2 0 0,0
13.12.2017 05:00:00 -4,5 -5,0 -5,3 3,9 7,0 3 2 8 5 ESE 0,3 0 0,0
13.12.2017 04:00:00 -4,2 -4,7 -5,9 3,9 7,0 4 2 9 5 SE 3,6 0 0,0
13.12.2017 03:00:00 -4,1 -4,8 -5,7 4,0 7,0 2 1 7 4 E 14 0 0,0
13.12.2017 02:00:00 -4,6 -5,3 -9,5 4,0 7,0 3 1 6 3 ESE 1,4 0 0,0
13.12.2017 01:00:00 -4,9 -5,7 -8,9 4,1 7,0 2 1 6 3 NNW 18 0 0,0
13.12.2017 00:00:00 -4,4 -5,1 -7,4 4,1 7,0 4 2 13 7 NW 11 0 0,0
12.12.2017 23:00:00 -4,4 -5,2 -7,9 4,2 7,1 5 3 9 5 WNW 18 0 0,0
12.12.2017 22:00:00 -3,9 -4,9 -7,4 4,2 7,0 3 2 7 4 WNW 20 0 0,0
12.12.2017 21:00:00 -2,8 -4,5 -5,7 4,2 7,0 0 0 17 9 N 20 0 0,0
12.12.2017 20:00:00 -2,1 -4,0 -3,5 4,1 7,0 8 5 26 14 WNW 20 0 0,0
12.12.2017 19:00:00 -1,9 -3,6 -3,7 4,1 7,0 10 6 20 11 WNW 20 0 0,0
12.12.2017 18:00:00 -1,5 -3,2 -4,0 4,0 7,0 7 4 19 11 WNW 20 0 0,0
12.12.2017 17:00:00 -0,2 -3,2 -1,4 4,0 7,0 8 4 21 11 NW 20 21 0,0
12.12.2017 16:00:00 1,0 -3,1 1,5 4,0 7,0 9 5 26 14 NW 20 12 0,0
12.12.2017 15:00:00 1,6 -2,7 1,5 3,9 7,0 11 6 27 15 NNW 20 7 0,0
12.12.2017 14:00:00 2,6 -1,2 2,6 3,9 7,0 17 9 26 14 NW 20 11 0,0
12.12.2017 13:00:00 2,0 -1,4 2,4 3,9 7,0 16 8 22 12 N 20 26 0,0
12.12.2017 12:00:00 2,3 0,8 1,5 3,9 7,0 5 3 19 10 WNW 20 22 0,0
12.12.2017 11:00:00 1,5 1,2 1,6 3,9 7,1 10 5 18 10 WNW 20 2 0,0
12.12.2017 10:00:00 1,0 0,7 0,9 4,0 7,1 8 4 20 11 WSW 1,1 0 0,0
12.12.2017 09:00:00 0,9 0,6 0,7 4,0 7,1 9 5 18 10 W 0,4 0 0,0
12.12.2017 08:00:00 0,8 0,5 0,7 4,0 7,1 8 4 21 11 WSW 4,3 0 0,0
12.12.2017 07:00:00 0,8 0,5 0,8 4,0 7,1 10 5 20 11 W 11 0 0,0
12.12.2017 06:00:00 0,9 0,6 0,8 4,0 7,1 7 4 16 8 WSW 20 0 0,0
12.12.2017 05:00:00 1,0 0,7 1,0 4,0 7,1 10 5 16 9 WSW 11 0 0,0
12.12.2017 04:00:00 1,3 1,0 1,3 4,0 7,1 8 5 24 13 WSW 9 0 0,0
12.12.2017 03:00:00 1,3 1,2 1,0 4,0 7,1 10 5 21 11 WSW 1,0 0 0,2
12.12.2017 02:00:00 1,2 0,9 0,8 4,0 7,1 10 6 20 11 W 0,3 0 0,2
12.12.2017 01:00:00 1,4 1,1 0,8 4,0 7,1 12 7 23 12 W 0,3 0 0,2
12.12.2017 00:00:00 1,6 1,3 1,2 4,0 7,2 12 6 28 15 W 3,2 0 0,0
11.12.2017 23:00:00 1,2 0,9 0,8 4,0 7,1 18 10 32 17 W 2,5 0 0,4
11.12.2017 22:00:00 1,8 1,5 1,7 4,1 7,2 16 8 36 19 W 0,4 0 0,4

tt = Température de l'air
td = dewpoint
tt 5cm = Température de l'air 5cm
tt -20cm = Température de l'air -20cm
tt -100cm = Température de l'air -100cm
ff = Vitesse du vent
fx = gusts
dd = Direction du vent
vv = visibility
sd = Ensoleillement
rr = Quantités de précipitations

stations d'obs. à proximité